Time;durP1;ratioP1;P1;durP2;ratioP2;P2;SDS_P1;SDS_P2;PMS_P1;PMS_P2;Temp;Humidity;BMP_temperature;BMP_pressure;BME280_temperature;BME280_humidity;BME280_pressure;Samples;Min_cycle;Max_cycle;Signal;HPM_P1;HPM_P2
2024/02/27 00:01:34;;;;;;;9.57;1.30;;;;;;;;;;5052752;28;20043;-68
2024/02/27 00:04:01;;;;;;;2.38;1.20;;;;;;;;;;5052783;28;20040;-68
2024/02/27 00:06:27;;;;;;;1.58;1.00;;;;;;;;;;5052673;28;20029;-68
2024/02/27 00:08:53;;;;;;;4.22;1.23;;;;;;;;;;5052744;28;20060;-68
2024/02/27 00:11:18;;;;;;;3.30;1.83;;;;;;;;;;5034819;28;20067;-67
2024/02/27 00:13:43;;;;;;;2.17;0.95;;;;;;;;;;5035374;28;20025;-68
2024/02/27 00:16:09;;;;;;;4.68;1.38;;;;;;;;;;5052920;28;20102;-68
2024/02/27 00:18:34;;;;;;;6.63;1.33;;;;;;;;;;5052826;28;20041;-67
2024/02/27 00:20:59;;;;;;;10.10;1.33;;;;;;;;;;5052872;28;20041;-67
2024/02/27 00:23:25;;;;;;;10.02;1.25;;;;;;;;;;5052658;28;20037;-67
2024/02/27 00:25:50;;;;;;;2.60;1.20;;;;;;;;;;5052505;28;20044;-68
2024/02/27 00:28:16;;;;;;;3.30;1.55;;;;;;;;;;5052443;28;20184;-68
2024/02/27 00:30:41;;;;;;;2.55;1.58;;;;;;;;;;5051472;28;20043;-69
2024/02/27 00:33:06;;;;;;;5.70;1.55;;;;;;;;;;5051402;28;20115;-68
2024/02/27 00:35:34;;;;;;;3.13;0.95;;;;;;;;;;5052104;28;20052;-68
2024/02/27 00:37:59;;;;;;;3.20;1.67;;;;;;;;;;5052445;28;20036;-67
2024/02/27 00:40:24;;;;;;;5.82;1.00;;;;;;;;;;5051976;28;20111;-67
2024/02/27 00:42:50;;;;;;;2.35;1.42;;;;;;;;;;5052422;28;20546;-67
2024/02/27 00:45:15;;;;;;;2.88;1.55;;;;;;;;;;5052257;28;20087;-68
2024/02/27 00:47:40;;;;;;;2.88;1.30;;;;;;;;;;5052504;28;20091;-68
2024/02/27 00:50:06;;;;;;;11.57;1.67;;;;;;;;;;5052202;28;20029;-67
2024/02/27 00:52:32;;;;;;;2.13;1.10;;;;;;;;;;5034208;28;20601;-68
2024/02/27 00:54:57;;;;;;;7.20;1.95;;;;;;;;;;5051955;28;20061;-67
2024/02/27 00:57:22;;;;;;;2.72;1.20;;;;;;;;;;5052094;28;20032;-67
2024/02/27 00:59:48;;;;;;;2.67;1.48;;;;;;;;;;5052200;28;20052;-68
2024/02/27 01:02:13;;;;;;;4.13;1.60;;;;;;;;;;5051966;28;20033;-68
2024/02/27 01:04:38;;;;;;;8.73;1.67;;;;;;;;;;5052017;28;20036;-68
2024/02/27 01:07:04;;;;;;;8.52;1.60;;;;;;;;;;5051980;28;20029;-67
2024/02/27 01:09:33;;;;;;;2.80;1.25;;;;;;;;;;5052082;28;20032;-67
2024/02/27 01:11:58;;;;;;;2.67;1.73;;;;;;;;;;5052073;28;20029;-67
2024/02/27 01:14:23;;;;;;;2.63;1.45;;;;;;;;;;5051870;28;20506;-67
2024/02/27 01:16:49;;;;;;;3.15;1.85;;;;;;;;;;5052053;28;20128;-66
2024/02/27 01:19:14;;;;;;;2.53;1.52;;;;;;;;;;5049390;28;20111;-68
2024/02/27 01:21:43;;;;;;;2.67;1.50;;;;;;;;;;5033744;28;20136;-68
2024/02/27 01:24:08;;;;;;;2.33;1.15;;;;;;;;;;5050815;28;20514;-68
2024/02/27 01:26:33;;;;;;;5.43;1.77;;;;;;;;;;5051267;28;20033;-67
2024/02/27 01:28:59;;;;;;;4.28;1.27;;;;;;;;;;5047909;28;20103;-67
2024/02/27 01:31:24;;;;;;;2.80;1.30;;;;;;;;;;5051688;28;20095;-68
2024/02/27 01:33:49;;;;;;;3.58;1.67;;;;;;;;;;5051051;28;20031;-67
2024/02/27 01:36:15;;;;;;;1.98;1.23;;;;;;;;;;5051254;28;20029;-67
2024/02/27 01:38:40;;;;;;;3.03;1.42;;;;;;;;;;5051564;28;20040;-68
2024/02/27 01:41:06;;;;;;;2.10;1.25;;;;;;;;;;5051360;28;20033;-66
2024/02/27 01:43:31;;;;;;;2.75;1.65;;;;;;;;;;5051068;28;20044;-67
2024/02/27 01:46:07;;;;;;;3.05;1.65;;;;;;;;;;5051101;28;20033;-68
2024/02/27 01:48:33;;;;;;;4.80;1.60;;;;;;;;;;5033629;28;20039;-67
2024/02/27 01:50:59;;;;;;;1.92;1.23;;;;;;;;;;5051022;28;20036;-67
2024/02/27 01:53:24;;;;;;;3.00;1.70;;;;;;;;;;5050895;28;20423;-68
2024/02/27 01:55:50;;;;;;;7.93;2.55;;;;;;;;;;5033165;28;20080;-66
2024/02/27 01:58:16;;;;;;;3.60;2.40;;;;;;;;;;5050624;28;20045;-68
2024/02/27 02:00:42;;;;;;;5.80;1.48;;;;;;;;;;5033534;28;20061;-69
2024/02/27 02:03:08;;;;;;;2.53;1.65;;;;;;;;;;5033052;28;20021;-69
2024/02/27 02:05:33;;;;;;;1.92;1.27;;;;;;;;;;5045535;28;20052;-67
2024/02/27 02:07:59;;;;;;;6.40;1.98;;;;;;;;;;5050625;28;20447;-68
2024/02/27 02:10:25;;;;;;;3.00;1.65;;;;;;;;;;5051062;28;20025;-68
2024/02/27 02:12:50;;;;;;;6.07;1.40;;;;;;;;;;5050929;28;20456;-68
2024/02/27 02:15:15;;;;;;;2.40;1.40;;;;;;;;;;5032393;28;20036;-67
2024/02/27 02:17:42;;;;;;;3.13;1.45;;;;;;;;;;5051058;28;20120;-68
2024/02/27 02:20:08;;;;;;;2.03;1.13;;;;;;;;;;5032837;28;20041;-67
2024/02/27 02:22:33;;;;;;;3.53;1.83;;;;;;;;;;5050293;28;20040;-68
2024/02/27 02:24:59;;;;;;;1.70;1.05;;;;;;;;;;5050650;28;20032;-67
2024/02/27 02:27:25;;;;;;;5.72;1.63;;;;;;;;;;5050579;28;20033;-68
2024/02/27 02:29:51;;;;;;;2.55;1.60;;;;;;;;;;5050209;28;20060;-67
2024/02/27 02:32:16;;;;;;;4.18;1.50;;;;;;;;;;5049229;28;20068;-68
2024/02/27 02:34:42;;;;;;;5.05;1.45;;;;;;;;;;5032184;28;20099;-67
2024/02/27 02:37:07;;;;;;;2.40;1.60;;;;;;;;;;5032238;28;20384;-68
2024/02/27 02:39:32;;;;;;;12.55;2.00;;;;;;;;;;5050548;28;20037;-68
2024/02/27 02:41:58;;;;;;;2.42;1.52;;;;;;;;;;5050490;28;20037;-67
2024/02/27 02:44:23;;;;;;;1.95;1.27;;;;;;;;;;5050223;28;20048;-67
2024/02/27 02:46:48;;;;;;;4.70;2.35;;;;;;;;;;5048997;28;20029;-67
2024/02/27 02:49:14;;;;;;;2.55;1.40;;;;;;;;;;5032689;28;20124;-67
2024/02/27 02:51:39;;;;;;;4.95;2.55;;;;;;;;;;5050024;28;20068;-67
2024/02/27 02:54:04;;;;;;;1.95;1.30;;;;;;;;;;5049621;28;20029;-68
2024/02/27 02:56:30;;;;;;;3.30;2.00;;;;;;;;;;5050288;28;20040;-67
2024/02/27 02:58:55;;;;;;;2.63;1.25;;;;;;;;;;5048521;28;20368;-69
2024/02/27 03:01:20;;;;;;;2.03;1.35;;;;;;;;;;5049610;28;20033;-67
2024/02/27 03:03:46;;;;;;;2.05;1.17;;;;;;;;;;5049420;28;20041;-67
2024/02/27 03:06:11;;;;;;;2.42;1.70;;;;;;;;;;5049541;28;20037;-68
2024/02/27 03:08:36;;;;;;;2.60;1.77;;;;;;;;;;5050130;28;20044;-68
2024/02/27 03:11:02;;;;;;;3.15;1.85;;;;;;;;;;5050177;28;20033;-68
2024/02/27 03:13:27;;;;;;;2.63;1.63;;;;;;;;;;5032154;28;20036;-67
2024/02/27 03:15:52;;;;;;;2.17;1.35;;;;;;;;;;5049823;28;20094;-68
2024/02/27 03:18:17;;;;;;;2.13;1.52;;;;;;;;;;5050099;28;20079;-68
2024/02/27 03:20:43;;;;;;;6.78;2.33;;;;;;;;;;5049975;28;20546;-67
2024/02/27 03:23:08;;;;;;;4.65;1.58;;;;;;;;;;5049844;28;20035;-68
2024/02/27 03:25:33;;;;;;;2.67;1.60;;;;;;;;;;5049723;28;20075;-67
2024/02/27 03:27:59;;;;;;;4.82;1.58;;;;;;;;;;5049952;28;20040;-67
2024/02/27 03:30:25;;;;;;;3.38;2.05;;;;;;;;;;5049921;28;20055;-67
2024/02/27 03:32:51;;;;;;;4.70;1.98;;;;;;;;;;5049694;28;20037;-67
2024/02/27 03:35:16;;;;;;;2.38;1.52;;;;;;;;;;5031667;28;20143;-68
2024/02/27 03:37:43;;;;;;;11.30;1.25;;;;;;;;;;5049695;28;20044;-67
2024/02/27 03:40:09;;;;;;;8.05;2.45;;;;;;;;;;5049253;28;20044;-67
2024/02/27 03:42:34;;;;;;;6.68;1.65;;;;;;;;;;5049749;28;20028;-68
2024/02/27 03:44:59;;;;;;;1.98;1.17;;;;;;;;;;5049745;28;20067;-67
2024/02/27 03:47:25;;;;;;;8.02;2.28;;;;;;;;;;5049535;28;20403;-67
2024/02/27 03:49:50;;;;;;;2.45;1.58;;;;;;;;;;5049847;28;20439;-66
2024/02/27 03:52:15;;;;;;;2.10;1.33;;;;;;;;;;5049407;28;20033;-68
2024/02/27 03:54:41;;;;;;;3.40;1.40;;;;;;;;;;5049088;28;20607;-67
2024/02/27 03:57:07;;;;;;;4.05;2.40;;;;;;;;;;5049711;28;20021;-68
2024/02/27 03:59:32;;;;;;;2.92;1.98;;;;;;;;;;5049582;28;20111;-67
2024/02/27 04:01:57;;;;;;;2.38;1.42;;;;;;;;;;5049253;28;20037;-69
2024/02/27 04:04:22;;;;;;;2.90;1.75;;;;;;;;;;5049260;28;20108;-68
2024/02/27 04:06:48;;;;;;;1.90;1.40;;;;;;;;;;5050465;28;20055;-67
2024/02/27 04:09:14;;;;;;;8.82;3.40;;;;;;;;;;5053056;28;20574;-69
2024/02/27 04:11:39;;;;;;;4.30;2.35;;;;;;;;;;5053198;28;20439;-67
2024/02/27 04:14:05;;;;;;;2.90;2.30;;;;;;;;;;5052930;28;20587;-69
2024/02/27 04:16:30;;;;;;;11.13;2.47;;;;;;;;;;5053379;28;20069;-68
2024/02/27 04:18:56;;;;;;;3.50;2.05;;;;;;;;;;5052488;28;20094;-67
2024/02/27 04:21:21;;;;;;;3.33;1.90;;;;;;;;;;5053356;28;20108;-67
2024/02/27 04:23:47;;;;;;;5.43;2.03;;;;;;;;;;5051218;28;20491;-68
2024/02/27 04:26:12;;;;;;;2.80;1.63;;;;;;;;;;5050520;28;20032;-67
2024/02/27 04:28:37;;;;;;;15.25;2.92;;;;;;;;;;5053119;28;20037;-68
2024/02/27 04:31:05;;;;;;;5.55;2.05;;;;;;;;;;5052733;28;20043;-68
2024/02/27 04:33:30;;;;;;;11.00;1.60;;;;;;;;;;5052251;28;20086;-67
2024/02/27 04:35:55;;;;;;;3.70;1.75;;;;;;;;;;5052605;28;20584;-68
2024/02/27 04:38:22;;;;;;;4.13;2.03;;;;;;;;;;5050043;28;20539;-67
2024/02/27 04:40:47;;;;;;;3.25;1.88;;;;;;;;;;5043073;28;20376;-68
2024/02/27 04:43:13;;;;;;;6.03;2.22;;;;;;;;;;5034584;28;20021;-68
2024/02/27 04:45:38;;;;;;;2.38;1.50;;;;;;;;;;5052432;28;20040;-67
2024/02/27 04:48:05;;;;;;;2.60;1.65;;;;;;;;;;5034417;28;20055;-68
2024/02/27 04:50:31;;;;;;;3.90;1.40;;;;;;;;;;5052358;28;20032;-66
2024/02/27 04:52:57;;;;;;;3.90;1.75;;;;;;;;;;5052073;28;20040;-67
2024/02/27 04:55:22;;;;;;;3.30;1.90;;;;;;;;;;5050499;28;20029;-68
2024/02/27 04:57:47;;;;;;;2.42;1.60;;;;;;;;;;5051981;28;20040;-69
2024/02/27 05:00:14;;;;;;;5.72;2.40;;;;;;;;;;5051979;28;20037;-70
2024/02/27 05:02:39;;;;;;;3.22;1.98;;;;;;;;;;5049912;28;20025;-69
2024/02/27 05:05:05;;;;;;;4.75;2.00;;;;;;;;;;5051894;28;20044;-70
2024/02/27 05:07:31;;;;;;;3.40;1.88;;;;;;;;;;5051758;28;20128;-66
2024/02/27 05:09:57;;;;;;;2.67;1.50;;;;;;;;;;5052258;28;20032;-66
2024/02/27 05:12:22;;;;;;;3.83;2.30;;;;;;;;;;5051714;28;20029;-67
2024/02/27 05:14:48;;;;;;;3.90;2.30;;;;;;;;;;5051962;28;20045;-66
2024/02/27 05:17:13;;;;;;;4.30;2.13;;;;;;;;;;5051602;28;20029;-67
2024/02/27 05:19:39;;;;;;;2.95;1.85;;;;;;;;;;5051840;28;20043;-66
2024/02/27 05:22:04;;;;;;;4.13;1.52;;;;;;;;;;5051827;28;20029;-67
2024/02/27 05:24:29;;;;;;;2.40;1.65;;;;;;;;;;5051521;28;20472;-66
2024/02/27 05:26:55;;;;;;;5.32;1.67;;;;;;;;;;5051769;28;20704;-67
2024/02/27 05:29:20;;;;;;;4.10;2.13;;;;;;;;;;5051295;28;20025;-67
2024/02/27 05:31:45;;;;;;;5.43;1.77;;;;;;;;;;5051715;28;20534;-67
2024/02/27 05:34:10;;;;;;;3.25;2.15;;;;;;;;;;5033374;28;20071;-66
2024/02/27 05:36:36;;;;;;;5.00;2.08;;;;;;;;;;5051183;28;20033;-67
2024/02/27 05:39:01;;;;;;;4.38;2.60;;;;;;;;;;5051632;28;20033;-66
2024/02/27 05:41:26;;;;;;;2.80;1.80;;;;;;;;;;5051574;28;20488;-66
2024/02/27 05:43:52;;;;;;;4.03;2.25;;;;;;;;;;5050758;28;20100;-70
2024/02/27 05:46:17;;;;;;;4.50;1.65;;;;;;;;;;5051141;28;20061;-69
2024/02/27 05:48:43;;;;;;;4.43;2.38;;;;;;;;;;5051537;28;20065;-70
2024/02/27 05:51:09;;;;;;;3.83;2.00;;;;;;;;;;5051293;28;20036;-69
2024/02/27 05:53:35;;;;;;;3.75;2.20;;;;;;;;;;5051125;28;20033;-69
2024/02/27 05:56:01;;;;;;;9.98;1.70;;;;;;;;;;5051085;28;20036;-68
2024/02/27 05:58:27;;;;;;;9.82;2.50;;;;;;;;;;5048769;28;20062;-66
2024/02/27 06:00:53;;;;;;;9.32;2.15;;;;;;;;;;5050775;28;20035;-68
2024/02/27 06:03:18;;;;;;;10.65;3.13;;;;;;;;;;5033393;28;20051;-68
2024/02/27 06:05:44;;;;;;;13.63;2.60;;;;;;;;;;5050553;28;20579;-69
2024/02/27 06:08:10;;;;;;;3.63;2.13;;;;;;;;;;5032707;28;20095;-68
2024/02/27 06:10:36;;;;;;;8.20;2.05;;;;;;;;;;5050985;28;20112;-68
2024/02/27 06:13:01;;;;;;;7.20;2.05;;;;;;;;;;5030507;28;20108;-68
2024/02/27 06:15:26;;;;;;;6.88;2.53;;;;;;;;;;5050434;28;20108;-68
2024/02/27 06:17:52;;;;;;;4.20;2.08;;;;;;;;;;5051135;28;20045;-68
2024/02/27 06:23:01;;;;;;;6.63;2.20;;;;;;;;;;5049905;28;20448;-69
2024/02/27 06:25:26;;;;;;;4.22;1.65;;;;;;;;;;5050679;28;20116;-69
2024/02/27 06:27:52;;;;;;;2.03;1.35;;;;;;;;;;5050654;28;20033;-68
2024/02/27 06:30:18;;;;;;;2.63;1.73;;;;;;;;;;5049383;28;20468;-69
2024/02/27 06:32:43;;;;;;;5.38;2.75;;;;;;;;;;5050932;28;20631;-69
2024/02/27 06:35:11;;;;;;;3.17;1.85;;;;;;;;;;5050538;28;20120;-69
2024/02/27 06:37:37;;;;;;;2.30;1.48;;;;;;;;;;5050323;28;20415;-68
2024/02/27 06:40:04;;;;;;;7.30;3.08;;;;;;;;;;5032522;28;20079;-68
2024/02/27 06:42:35;;;;;;;6.35;2.67;;;;;;;;;;5050524;28;20036;-68
2024/02/27 06:45:02;;;;;;;3.65;2.15;;;;;;;;;;5045774;28;20041;-68
2024/02/27 06:47:27;;;;;;;5.88;1.85;;;;;;;;;;5050362;28;20120;-68
2024/02/27 06:49:56;;;;;;;14.38;2.72;;;;;;;;;;5032350;28;20124;-67
2024/02/27 06:52:22;;;;;;;3.00;1.67;;;;;;;;;;5050242;28;20041;-66
2024/02/27 06:54:47;;;;;;;4.70;1.98;;;;;;;;;;5050138;28;20558;-68
2024/02/27 06:57:12;;;;;;;5.28;2.83;;;;;;;;;;5040984;28;20033;-67
2024/02/27 06:59:38;;;;;;;3.83;2.03;;;;;;;;;;5050139;28;20025;-68
2024/02/27 07:02:05;;;;;;;3.28;2.15;;;;;;;;;;5049582;28;20041;-67
2024/02/27 07:04:30;;;;;;;2.78;1.63;;;;;;;;;;5050090;28;20021;-67
2024/02/27 07:06:55;;;;;;;3.63;1.92;;;;;;;;;;5032170;28;20025;-67
2024/02/27 07:09:21;;;;;;;2.63;1.63;;;;;;;;;;5032084;28;20037;-68
2024/02/27 07:11:46;;;;;;;8.00;2.38;;;;;;;;;;5050084;28;20033;-67
2024/02/27 07:14:12;;;;;;;2.85;1.77;;;;;;;;;;5049946;28;20487;-68
2024/02/27 07:16:37;;;;;;;4.03;2.05;;;;;;;;;;5049876;28;20036;-67
2024/02/27 07:19:03;;;;;;;3.25;1.73;;;;;;;;;;5049847;28;20530;-69
2024/02/27 07:21:28;;;;;;;4.07;1.75;;;;;;;;;;5050198;28;20026;-67
2024/02/27 07:23:53;;;;;;;5.10;2.03;;;;;;;;;;5049680;28;20041;-66
2024/02/27 07:26:19;;;;;;;3.78;2.05;;;;;;;;;;5049569;28;20036;-68
2024/02/27 07:28:45;;;;;;;5.90;2.30;;;;;;;;;;5049437;28;20112;-67
2024/02/27 07:31:10;;;;;;;4.32;2.08;;;;;;;;;;5049380;28;20392;-68
2024/02/27 07:33:36;;;;;;;3.53;1.73;;;;;;;;;;5049635;28;20025;-68
2024/02/27 07:36:01;;;;;;;3.38;1.80;;;;;;;;;;5050152;28;20244;-67
2024/02/27 07:38:26;;;;;;;6.97;1.88;;;;;;;;;;5032008;28;20083;-67
2024/02/27 07:40:52;;;;;;;3.80;1.90;;;;;;;;;;5050452;28;20036;-68
2024/02/27 07:43:17;;;;;;;2.75;1.77;;;;;;;;;;5053625;28;20103;-68
2024/02/27 07:45:42;;;;;;;5.05;2.30;;;;;;;;;;5053891;28;20047;-67
2024/02/27 07:48:08;;;;;;;3.13;1.67;;;;;;;;;;5053352;28;20033;-68
2024/02/27 07:50:34;;;;;;;5.03;2.67;;;;;;;;;;5053405;28;20037;-67
2024/02/27 07:52:59;;;;;;;9.95;2.25;;;;;;;;;;5035808;28;20538;-67
2024/02/27 07:55:25;;;;;;;10.13;4.47;;;;;;;;;;5052471;28;20587;-68
2024/02/27 07:57:50;;;;;;;8.13;4.70;;;;;;;;;;5052737;28;20492;-68
2024/02/27 08:00:16;;;;;;;20.73;7.65;;;;;;;;;;5051331;28;20128;-68
2024/02/27 08:02:41;;;;;;;13.35;7.05;;;;;;;;;;5051296;28;20021;-68
2024/02/27 08:05:07;;;;;;;13.45;7.05;;;;;;;;;;5052879;28;20033;-67
2024/02/27 08:07:33;;;;;;;14.80;6.70;;;;;;;;;;5052361;28;20131;-68
2024/02/27 08:09:59;;;;;;;17.15;6.55;;;;;;;;;;5035102;28;20025;-67
2024/02/27 08:12:24;;;;;;;14.55;5.55;;;;;;;;;;5052698;28;20036;-68
2024/02/27 08:14:50;;;;;;;10.80;5.85;;;;;;;;;;5034286;28;20095;-68
2024/02/27 08:17:15;;;;;;;13.00;6.55;;;;;;;;;;5035314;28;20428;-68
2024/02/27 08:19:41;;;;;;;9.30;5.18;;;;;;;;;;5052395;28;20037;-68
2024/02/27 08:22:06;;;;;;;11.50;4.20;;;;;;;;;;5052614;28;20043;-68
2024/02/27 08:24:35;;;;;;;9.45;3.97;;;;;;;;;;5052364;28;20488;-69
2024/02/27 08:27:00;;;;;;;7.70;3.60;;;;;;;;;;5052779;28;20036;-68
2024/02/27 08:29:25;;;;;;;14.48;4.28;;;;;;;;;;5034734;28;20095;-67
2024/02/27 08:31:51;;;;;;;12.43;4.63;;;;;;;;;;5052661;28;20033;-68
2024/02/27 08:34:16;;;;;;;17.35;4.95;;;;;;;;;;5052210;28;20045;-68
2024/02/27 08:36:41;;;;;;;9.50;4.88;;;;;;;;;;5052601;28;20086;-68
2024/02/27 08:39:09;;;;;;;8.48;4.55;;;;;;;;;;5052823;28;20033;-69
2024/02/27 08:41:36;;;;;;;11.52;4.30;;;;;;;;;;5034475;28;20379;-67
2024/02/27 08:44:01;;;;;;;8.35;4.03;;;;;;;;;;5052441;28;20488;-68
2024/02/27 08:46:26;;;;;;;6.53;3.42;;;;;;;;;;5052052;28;20060;-68
2024/02/27 08:48:53;;;;;;;7.28;2.42;;;;;;;;;;5054118;28;20103;-69
2024/02/27 08:51:18;;;;;;;10.65;2.45;;;;;;;;;;5058535;28;20041;-68
2024/02/27 08:53:43;;;;;;;5.80;2.58;;;;;;;;;;5051133;28;20032;-68
2024/02/27 08:56:09;;;;;;;8.85;2.45;;;;;;;;;;5033756;28;20025;-68
2024/02/27 08:58:36;;;;;;;4.32;2.08;;;;;;;;;;5033666;28;20041;-68
2024/02/27 09:01:01;;;;;;;12.80;2.70;;;;;;;;;;5044157;28;20792;-68
2024/02/27 09:03:27;;;;;;;11.90;3.13;;;;;;;;;;5032791;28;20044;-70
2024/02/27 09:05:52;;;;;;;4.60;2.28;;;;;;;;;;5033238;28;20041;-69
2024/02/27 09:08:18;;;;;;;6.93;3.55;;;;;;;;;;5055164;28;20413;-68
2024/02/27 09:10:43;;;;;;;10.75;4.05;;;;;;;;;;5051189;28;20039;-68
2024/02/27 09:13:09;;;;;;;7.45;3.95;;;;;;;;;;5050200;28;20044;-70
2024/02/27 09:15:34;;;;;;;11.13;5.15;;;;;;;;;;5034261;28;20087;-68
2024/02/27 09:18:00;;;;;;;11.60;5.25;;;;;;;;;;5055040;28;20029;-69
2024/02/27 09:20:25;;;;;;;9.38;5.10;;;;;;;;;;5036655;28;20056;-68
2024/02/27 09:22:51;;;;;;;8.95;4.75;;;;;;;;;;5049306;28;20021;-68
2024/02/27 09:25:16;;;;;;;18.58;4.40;;;;;;;;;;5051221;28;20029;-68
2024/02/27 09:27:41;;;;;;;9.23;5.18;;;;;;;;;;5050446;28;20496;-70
2024/02/27 09:30:07;;;;;;;12.75;4.88;;;;;;;;;;5051110;28;20079;-69
2024/02/27 09:32:32;;;;;;;6.97;4.05;;;;;;;;;;5051342;28;20171;-68
2024/02/27 09:34:58;;;;;;;9.10;4.70;;;;;;;;;;5050594;28;20587;-68
2024/02/27 09:37:23;;;;;;;15.75;4.88;;;;;;;;;;5048127;28;20480;-69
2024/02/27 09:39:48;;;;;;;6.93;4.07;;;;;;;;;;5040542;28;20087;-68
2024/02/27 09:42:14;;;;;;;10.73;5.20;;;;;;;;;;5029922;28;20064;-69
2024/02/27 09:44:44;;;;;;;13.02;6.07;;;;;;;;;;5046186;28;20035;-68
2024/02/27 09:47:14;;;;;;;20.70;5.82;;;;;;;;;;5029876;28;20116;-67
2024/02/27 09:49:43;;;;;;;13.45;5.53;;;;;;;;;;5046750;28;20116;-70
2024/02/27 09:52:15;;;;;;;9.10;5.28;;;;;;;;;;5021752;28;20028;-69
2024/02/27 09:54:40;;;;;;;15.82;5.47;;;;;;;;;;5045785;28;20041;-69
2024/02/27 09:57:06;;;;;;;9.57;4.82;;;;;;;;;;5028399;28;20032;-68
2024/02/27 09:59:31;;;;;;;12.68;5.65;;;;;;;;;;5026962;28;20061;-68
2024/02/27 10:02:13;;;;;;;8.60;5.05;;;;;;;;;;5028122;28;20099;-68
2024/02/27 10:04:40;;;;;;;11.73;6.80;;;;;;;;;;5042460;28;20523;-68
2024/02/27 10:07:12;;;;;;;12.75;5.60;;;;;;;;;;5018878;28;20497;-68
2024/02/27 10:09:39;;;;;;;12.88;6.80;;;;;;;;;;5029091;28;20172;-68
2024/02/27 10:12:05;;;;;;;13.02;6.28;;;;;;;;;;5029015;28;20033;-68
2024/02/27 10:14:32;;;;;;;12.75;6.90;;;;;;;;;;5040418;28;20115;-67
2024/02/27 10:16:59;;;;;;;13.70;7.10;;;;;;;;;;5045634;28;20033;-68
2024/02/27 10:19:28;;;;;;;13.68;7.18;;;;;;;;;;5043488;28;20067;-69
2024/02/27 10:21:55;;;;;;;10.27;6.55;;;;;;;;;;5017649;28;20068;-68
2024/02/27 10:24:21;;;;;;;10.52;6.78;;;;;;;;;;5028199;28;20108;-69
2024/02/27 10:27:04;;;;;;;9.63;6.05;;;;;;;;;;5019261;28;20128;-69
2024/02/27 10:29:31;;;;;;;11.43;6.40;;;;;;;;;;5029314;28;20037;-68
2024/02/27 10:31:56;;;;;;;16.95;7.20;;;;;;;;;;5028238;28;20043;-68
2024/02/27 10:34:24;;;;;;;16.92;7.07;;;;;;;;;;5028196;28;20499;-68
2024/02/27 10:36:58;;;;;;;14.48;6.80;;;;;;;;;;5027897;28;20045;-68
2024/02/27 10:39:24;;;;;;;16.85;6.82;;;;;;;;;;5044954;28;20488;-68
2024/02/27 10:41:51;;;;;;;17.17;7.57;;;;;;;;;;5027983;28;20081;-67
2024/02/27 10:44:16;;;;;;;16.75;6.93;;;;;;;;;;5030871;28;20546;-68
2024/02/27 10:46:41;;;;;;;17.77;7.97;;;;;;;;;;5028159;28;20029;-69
2024/02/27 10:49:07;;;;;;;11.27;6.95;;;;;;;;;;5029369;28;20041;-68
2024/02/27 10:51:34;;;;;;;18.08;7.85;;;;;;;;;;5046170;28;20395;-68
2024/02/27 10:53:59;;;;;;;18.90;8.00;;;;;;;;;;5027845;28;20043;-67
2024/02/27 10:56:25;;;;;;;17.20;8.07;;;;;;;;;;5045353;28;20037;-69
2024/02/27 10:58:51;;;;;;;21.60;9.57;;;;;;;;;;5027411;28;20439;-68
2024/02/27 11:01:17;;;;;;;24.58;9.20;;;;;;;;;;5010139;28;20476;-68
2024/02/27 11:03:45;;;;;;;23.38;8.70;;;;;;;;;;5044205;28;20041;-67
2024/02/27 11:06:14;;;;;;;17.38;8.05;;;;;;;;;;5027734;28;20124;-68
2024/02/27 11:08:41;;;;;;;19.30;9.20;;;;;;;;;;5030902;28;20032;-68
2024/02/27 11:11:06;;;;;;;18.73;7.85;;;;;;;;;;5029632;28;20037;-67
2024/02/27 11:13:32;;;;;;;14.75;7.40;;;;;;;;;;5044586;28;20067;-68
2024/02/27 11:15:59;;;;;;;15.98;7.50;;;;;;;;;;5029487;28;20035;-69
2024/02/27 11:18:25;;;;;;;13.63;7.28;;;;;;;;;;5049700;28;20047;-68
2024/02/27 11:20:51;;;;;;;16.45;6.88;;;;;;;;;;5033258;28;20036;-68
2024/02/27 11:23:17;;;;;;;14.43;8.85;;;;;;;;;;5035156;28;20029;-68
2024/02/27 11:25:43;;;;;;;15.07;7.28;;;;;;;;;;5048575;28;20037;-68
2024/02/27 11:28:09;;;;;;;14.20;7.70;;;;;;;;;;5049116;28;20697;-68
2024/02/27 11:30:35;;;;;;;13.85;7.85;;;;;;;;;;5031865;28;20465;-67
2024/02/27 11:33:00;;;;;;;15.52;7.68;;;;;;;;;;5029881;28;20403;-67
2024/02/27 11:35:27;;;;;;;18.20;7.32;;;;;;;;;;5028040;28;20041;-68
2024/02/27 11:37:52;;;;;;;14.02;7.28;;;;;;;;;;5055047;28;20033;-67
2024/02/27 11:40:52;;;;;;;14.18;7.07;;;;;;;;;;5048251;28;20529;-69
2024/02/27 11:43:19;;;;;;;15.20;5.60;;;;;;;;;;5048489;28;20029;-69
2024/02/27 11:45:44;;;;;;;12.55;6.68;;;;;;;;;;5049440;28;20037;-67
2024/02/27 11:48:10;;;;;;;16.52;5.97;;;;;;;;;;5051063;28;20043;-68
2024/02/27 11:50:38;;;;;;;9.27;6.03;;;;;;;;;;5048658;28;20098;-67
2024/02/27 11:53:20;;;;;;;19.23;6.13;;;;;;;;;;5048715;28;20048;-68
2024/02/27 11:55:49;;;;;;;8.50;5.05;;;;;;;;;;5032846;28;20072;-68
2024/02/27 11:58:15;;;;;;;11.45;4.90;;;;;;;;;;5048520;28;20043;-68
2024/02/27 12:00:43;;;;;;;10.75;5.05;;;;;;;;;;5030786;28;20069;-68
2024/02/27 12:03:09;;;;;;;12.02;5.15;;;;;;;;;;5047529;28;20024;-68
2024/02/27 12:05:34;;;;;;;7.18;4.30;;;;;;;;;;5031021;28;20041;-69
2024/02/27 12:08:00;;;;;;;8.65;4.00;;;;;;;;;;5049585;28;20502;-67
2024/02/27 12:10:26;;;;;;;10.45;4.07;;;;;;;;;;5030263;28;20029;-68
2024/02/27 12:12:52;;;;;;;10.45;3.70;;;;;;;;;;5052069;28;20097;-68
2024/02/27 12:15:17;;;;;;;6.47;3.60;;;;;;;;;;5050782;28;20044;-68
2024/02/27 12:17:43;;;;;;;6.90;3.55;;;;;;;;;;5050910;28;20460;-70
2024/02/27 12:20:10;;;;;;;6.63;4.00;;;;;;;;;;5049555;28;20052;-70
2024/02/27 12:22:37;;;;;;;5.20;3.38;;;;;;;;;;5049318;28;20148;-69
2024/02/27 12:25:03;;;;;;;10.07;3.40;;;;;;;;;;5049496;28;20033;-69
2024/02/27 12:27:29;;;;;;;6.95;3.60;;;;;;;;;;5046773;28;20102;-68
2024/02/27 12:29:54;;;;;;;6.00;3.10;;;;;;;;;;5048269;28;20033;-69
2024/02/27 12:32:20;;;;;;;4.68;2.47;;;;;;;;;;5047443;28;20465;-69
2024/02/27 12:34:47;;;;;;;8.80;3.25;;;;;;;;;;5028390;28;20092;-68
2024/02/27 12:37:12;;;;;;;9.43;3.28;;;;;;;;;;5048586;28;20048;-70
2024/02/27 12:39:37;;;;;;;7.45;2.70;;;;;;;;;;5047573;28;20029;-68
2024/02/27 12:42:03;;;;;;;8.13;2.55;;;;;;;;;;5047629;28;20045;-68
2024/02/27 12:44:29;;;;;;;5.75;2.90;;;;;;;;;;5047673;28;20045;-69
2024/02/27 12:46:54;;;;;;;6.88;2.53;;;;;;;;;;5030051;28;20037;-69
2024/02/27 12:49:21;;;;;;;5.45;2.58;;;;;;;;;;5044135;28;20049;-69
2024/02/27 12:51:47;;;;;;;4.22;2.15;;;;;;;;;;5047207;28;20041;-68
2024/02/27 12:54:14;;;;;;;5.63;2.33;;;;;;;;;;5045054;28;20039;-68
2024/02/27 12:56:39;;;;;;;4.38;2.10;;;;;;;;;;5047800;28;20049;-68
2024/02/27 12:59:07;;;;;;;5.68;2.33;;;;;;;;;;5047499;28;20041;-68
2024/02/27 13:01:33;;;;;;;8.73;2.63;;;;;;;;;;5047894;28;20489;-70
2024/02/27 13:03:59;;;;;;;7.47;3.22;;;;;;;;;;5048631;28;20098;-68
2024/02/27 13:06:25;;;;;;;10.68;2.95;;;;;;;;;;5047034;28;20033;-69
2024/02/27 13:08:50;;;;;;;8.52;2.13;;;;;;;;;;5047440;28;20037;-68
2024/02/27 13:11:17;;;;;;;6.13;2.63;;;;;;;;;;5030145;28;20047;-68
2024/02/27 13:13:43;;;;;;;7.97;2.70;;;;;;;;;;5045631;28;20155;-69
2024/02/27 13:16:08;;;;;;;7.88;2.08;;;;;;;;;;5019879;28;20476;-68
2024/02/27 13:18:33;;;;;;;3.83;1.77;;;;;;;;;;5047253;28;20488;-69
2024/02/27 13:20:59;;;;;;;4.15;2.22;;;;;;;;;;5047040;28;20048;-67
2024/02/27 13:23:25;;;;;;;4.13;1.85;;;;;;;;;;5030535;28;20025;-68
2024/02/27 13:25:50;;;;;;;4.47;1.83;;;;;;;;;;5044628;28;20045;-68
2024/02/27 13:28:16;;;;;;;4.10;2.03;;;;;;;;;;5042176;28;20044;-69
2024/02/27 13:30:41;;;;;;;4.65;1.80;;;;;;;;;;5028925;28;20033;-68
2024/02/27 13:33:06;;;;;;;3.10;1.92;;;;;;;;;;5046648;28;20028;-69
2024/02/27 13:35:32;;;;;;;5.10;1.58;;;;;;;;;;5029127;28;20053;-68
2024/02/27 13:37:57;;;;;;;10.98;2.25;;;;;;;;;;5046547;28;20025;-69
2024/02/27 13:40:23;;;;;;;10.35;1.73;;;;;;;;;;5029234;28;20662;-69
2024/02/27 13:42:48;;;;;;;6.80;1.90;;;;;;;;;;5045170;28;20095;-70
2024/02/27 13:45:14;;;;;;;4.10;1.90;;;;;;;;;;5026143;28;20044;-68
2024/02/27 13:47:39;;;;;;;6.00;2.08;;;;;;;;;;5041654;28;20044;-69
2024/02/27 13:50:05;;;;;;;6.88;2.33;;;;;;;;;;5042537;28;20049;-69
2024/02/27 13:52:30;;;;;;;9.07;1.77;;;;;;;;;;5042404;28;20039;-68
2024/02/27 13:54:56;;;;;;;11.95;2.13;;;;;;;;;;5023887;28;20542;-69
2024/02/27 13:57:24;;;;;;;6.13;2.33;;;;;;;;;;5025035;28;20037;-68
2024/02/27 13:59:50;;;;;;;3.67;1.50;;;;;;;;;;5016189;28;20045;-68
2024/02/27 14:02:15;;;;;;;8.98;1.75;;;;;;;;;;5043623;28;20036;-70
2024/02/27 14:04:41;;;;;;;3.65;1.60;;;;;;;;;;5045989;28;20041;-71
2024/02/27 14:07:06;;;;;;;4.13;1.60;;;;;;;;;;5029179;28;20089;-69
2024/02/27 14:09:32;;;;;;;4.20;1.40;;;;;;;;;;5046201;28;20090;-69
2024/02/27 14:11:57;;;;;;;3.17;1.55;;;;;;;;;;5046584;28;20141;-69
2024/02/27 14:14:22;;;;;;;4.20;1.73;;;;;;;;;;5045867;28;20095;-68
2024/02/27 14:16:48;;;;;;;4.25;1.55;;;;;;;;;;5043218;28;20668;-70
2024/02/27 14:19:13;;;;;;;4.80;1.90;;;;;;;;;;5052002;28;20032;-70
2024/02/27 14:21:38;;;;;;;4.75;2.63;;;;;;;;;;5045809;28;20132;-69
2024/02/27 14:24:04;;;;;;;5.32;1.70;;;;;;;;;;5047396;28;20041;-69
2024/02/27 14:26:29;;;;;;;7.20;3.60;;;;;;;;;;5028230;28;20037;-69
2024/02/27 14:28:56;;;;;;;5.43;2.53;;;;;;;;;;5046160;28;20033;-71
2024/02/27 14:31:23;;;;;;;7.18;2.35;;;;;;;;;;5024207;28;20123;-69
2024/02/27 14:33:48;;;;;;;4.65;2.50;;;;;;;;;;5045896;28;20033;-69
2024/02/27 14:36:13;;;;;;;4.82;2.38;;;;;;;;;;5045675;28;20035;-69